Time;durP1;ratioP1;P1;durP2;ratioP2;P2;SDS_P1;SDS_P2;PMS_P1;PMS_P2;Temp;Humidity;BMP_temperature;BMP_pressure;BME280_temperature;BME280_humidity;BME280_pressure;Samples;Min_cycle;Max_cycle;Signal;HPM_P1;HPM_P2
2021/09/22 00:01:39;;;;;;;3.60;2.78;;;5.60;99.90;;;;;;4930906;28;20043;-85
2021/09/22 00:04:06;;;;;;;3.42;2.90;;;5.50;99.90;;;;;;4940650;28;20508;-84
2021/09/22 00:06:33;;;;;;;3.17;2.28;;;5.50;99.90;;;;;;4925132;28;20682;-85
2021/09/22 00:09:00;;;;;;;3.50;2.97;;;5.50;99.90;;;;;;4924551;28;20047;-85
2021/09/22 00:11:28;;;;;;;2.95;2.70;;;5.50;99.90;;;;;;4926325;28;20769;-85
2021/09/22 00:13:55;;;;;;;3.75;2.90;;;5.50;99.90;;;;;;4941958;28;20520;-85
2021/09/22 00:16:22;;;;;;;4.30;2.80;;;5.50;99.90;;;;;;4942007;28;20044;-85
2021/09/22 00:18:49;;;;;;;3.00;2.72;;;5.40;99.90;;;;;;4924523;28;20122;-84
2021/09/22 00:21:16;;;;;;;3.35;2.65;;;5.40;99.90;;;;;;4925646;28;20521;-84
2021/09/22 00:23:44;;;;;;;5.60;3.10;;;5.40;99.90;;;;;;4942679;28;20140;-84
2021/09/22 00:26:11;;;;;;;3.67;3.03;;;5.40;99.90;;;;;;4926176;28;20201;-86
2021/09/22 00:28:38;;;;;;;3.33;2.63;;;5.30;99.90;;;;;;4927106;28;21242;-85
2021/09/22 00:31:05;;;;;;;6.07;3.70;;;5.30;99.90;;;;;;4923682;28;20503;-85
2021/09/22 00:33:32;;;;;;;3.15;2.72;;;5.30;99.90;;;;;;4928019;28;20117;-84
2021/09/22 00:35:59;;;;;;;4.32;2.85;;;5.30;99.90;;;;;;4924807;29;20076;-85
2021/09/22 00:38:26;;;;;;;4.55;2.72;;;5.30;99.90;;;;;;4941606;28;20043;-85
2021/09/22 00:40:53;;;;;;;3.17;2.35;;;5.30;99.90;;;;;;4925536;28;20055;-85
2021/09/22 00:43:20;;;;;;;4.90;2.60;;;5.30;99.90;;;;;;4931649;28;20047;-84
2021/09/22 00:45:48;;;;;;;2.33;2.13;;;5.30;99.90;;;;;;4941307;28;20050;-84
2021/09/22 00:48:15;;;;;;;3.65;3.30;;;5.30;99.90;;;;;;4931727;28;20390;-84
2021/09/22 00:50:49;;;;;;;2.58;2.35;;;5.40;99.90;;;;;;4940010;28;20043;-84
2021/09/22 00:53:16;;;;;;;4.25;3.03;;;5.40;99.90;;;;;;4939564;28;20061;-84
2021/09/22 00:55:45;;;;;;;2.92;2.45;;;5.40;99.90;;;;;;4926222;28;20865;-84
2021/09/22 00:58:25;;;;;;;3.65;2.50;;;5.40;99.90;;;;;;4938072;28;20051;-86
2021/09/22 01:00:52;;;;;;;2.83;2.10;;;5.40;99.90;;;;;;4922915;28;20796;-85
2021/09/22 01:03:20;;;;;;;3.45;3.08;;;5.50;99.90;;;;;;4939409;28;20110;-85
2021/09/22 01:05:49;;;;;;;3.50;2.45;;;5.50;99.90;;;;;;4922053;28;20050;-86
2021/09/22 01:08:31;;;;;;;3.50;2.65;;;5.60;99.90;;;;;;2299770;28;10022724;-85
2021/09/22 01:10:58;;;;;;;4.82;3.10;;;5.60;99.90;;;;;;3563794;28;10001249;-84
2021/09/22 01:13:25;;;;;;;3.75;2.90;;;5.70;99.90;;;;;;4914718;28;20046;-85
2021/09/22 01:15:53;;;;;;;3.55;2.38;;;5.70;99.90;;;;;;4910458;28;20063;-85
2021/09/22 01:18:23;;;;;;;2.30;2.10;;;5.80;99.90;;;;;;4908702;28;20051;-85
2021/09/22 01:20:59;;;;;;;3.10;2.53;;;5.80;99.90;;;;;;4895795;28;20051;-85
2021/09/22 01:23:29;;;;;;;2.30;2.10;;;5.90;99.90;;;;;;4890768;28;20074;-85
2021/09/22 01:26:03;;;;;;;3.10;2.53;;;5.90;99.90;;;;;;4905731;28;20051;-85
2021/09/22 01:28:31;;;;;;;2.47;1.90;;;5.90;99.90;;;;;;4890110;28;20040;-84
2021/09/22 01:31:03;;;;;;;3.10;2.63;;;6.00;99.90;;;;;;4888514;28;20579;-85
2021/09/22 01:33:34;;;;;;;3.15;2.53;;;6.10;99.90;;;;;;4895740;28;20055;-85
2021/09/22 01:36:05;;;;;;;2.88;2.67;;;6.10;99.90;;;;;;4912277;28;20051;-85
2021/09/22 01:38:34;;;;;;;3.40;3.10;;;6.20;99.90;;;;;;4896878;28;20047;-85
2021/09/22 01:41:13;;;;;;;3.17;2.47;;;6.20;99.90;;;;;;4908805;28;20062;-85
2021/09/22 01:43:53;;;;;;;2.60;2.38;;;6.30;99.90;;;;;;4887766;28;20349;-85
2021/09/22 01:46:25;;;;;;;3.10;1.98;;;6.30;99.90;;;;;;4917612;28;20118;-85
2021/09/22 01:48:56;;;;;;;3.15;2.85;;;6.30;99.90;;;;;;4943838;28;20054;-85
2021/09/22 01:51:24;;;;;;;2.30;2.10;;;6.40;99.90;;;;;;4945610;28;20063;-85
2021/09/22 01:54:02;;;;;;;2.50;2.30;;;6.40;99.90;;;;;;4946647;28;20051;-85
2021/09/22 01:56:31;;;;;;;3.13;2.55;;;6.50;99.90;;;;;;4929271;28;20194;-85
2021/09/22 01:59:02;;;;;;;2.55;1.90;;;6.50;99.90;;;;;;4944371;28;20058;-84
2021/09/22 02:01:49;;;;;;;2.30;2.08;;;6.60;99.90;;;;;;4931174;28;20456;-85
2021/09/22 02:04:26;;;;;;;2.10;1.90;;;6.60;99.90;;;;;;4916214;29;20047;-86
2021/09/22 02:06:58;;;;;;;2.67;2.13;;;6.70;99.90;;;;;;4944958;28;20050;-85
2021/09/22 02:09:25;;;;;;;2.45;1.65;;;6.70;99.90;;;;;;4930262;28;20472;-84
2021/09/22 02:11:56;;;;;;;;;;;6.70;99.90;;;;;;4930972;28;20405;-85
2021/09/22 02:14:23;;;;;;;3.15;2.85;;;6.70;99.90;;;;;;4929676;28;20676;-85
2021/09/22 02:16:53;;;;;;;3.80;3.22;;;6.80;99.90;;;;;;4930662;28;20039;-85
2021/09/22 02:19:26;;;;;;;3.00;2.67;;;6.80;99.90;;;;;;4928521;28;20151;-85
2021/09/22 02:22:13;;;;;;;4.15;2.35;;;6.80;99.90;;;;;;4932591;28;20055;-85
2021/09/22 02:24:55;;;;;;;2.22;2.03;;;6.90;99.90;;;;;;4943877;28;20165;-84
2021/09/22 02:27:22;;;;;;;3.15;2.42;;;6.90;99.90;;;;;;4921441;29;20067;-84
2021/09/22 02:29:52;;;;;;;2.40;2.10;;;6.90;99.90;;;;;;4945579;28;20051;-84
2021/09/22 02:32:19;;;;;;;2.55;2.25;;;7.00;99.90;;;;;;4930935;28;20149;-85
2021/09/22 02:34:46;;;;;;;2.67;2.47;;;7.00;99.90;;;;;;4929254;28;20051;-85
2021/09/22 02:37:13;;;;;;;2.40;2.20;;;7.00;99.90;;;;;;4927062;28;20131;-85
2021/09/22 02:39:55;;;;;;;2.60;2.40;;;7.10;99.90;;;;;;4944041;28;20059;-84
2021/09/22 02:42:23;;;;;;;2.83;2.25;;;7.10;99.90;;;;;;4946697;28;20145;-85
2021/09/22 02:44:51;;;;;;;3.33;2.05;;;7.10;99.90;;;;;;4942395;28;20051;-85
2021/09/22 02:47:21;;;;;;;4.38;2.15;;;7.20;99.90;;;;;;4927138;28;20051;-85
2021/09/22 02:49:52;;;;;;;2.55;2.35;;;7.20;99.90;;;;;;4928038;28;20071;-84
2021/09/22 02:52:19;;;;;;;3.75;2.10;;;7.20;99.90;;;;;;4918223;28;20047;-84
2021/09/22 02:54:46;;;;;;;2.58;2.30;;;7.30;99.90;;;;;;4942455;28;20044;-85
2021/09/22 02:57:18;;;;;;;2.10;1.90;;;7.30;99.90;;;;;;4930346;28;20213;-86
2021/09/22 02:59:47;;;;;;;3.38;2.85;;;7.30;99.90;;;;;;4927487;28;20067;-87
2021/09/22 03:02:19;;;;;;;3.28;2.95;;;7.30;99.90;;;;;;4942797;28;20047;-86
2021/09/22 03:04:47;;;;;;;3.42;2.20;;;7.30;99.90;;;;;;4933677;28;20621;-85
2021/09/22 03:07:14;;;;;;;3.38;2.30;;;7.30;99.90;;;;;;4926127;28;20669;-85
2021/09/22 03:09:41;;;;;;;2.60;1.98;;;7.40;99.90;;;;;;4926581;28;20052;-86
2021/09/22 03:12:08;;;;;;;2.55;2.28;;;7.40;99.90;;;;;;4925651;28;20416;-86
2021/09/22 03:14:36;;;;;;;11.48;2.45;;;7.40;99.90;;;;;;4943202;28;20477;-85
2021/09/22 03:17:03;;;;;;;5.43;3.00;;;7.40;99.90;;;;;;4931713;28;20157;-86
2021/09/22 03:19:31;;;;;;;5.85;2.88;;;7.50;99.90;;;;;;4927473;28;20066;-85
2021/09/22 03:21:58;;;;;;;5.72;2.75;;;7.50;99.90;;;;;;4927180;29;20535;-85
2021/09/22 03:24:45;;;;;;;2.20;2.00;;;7.50;99.90;;;;;;4925308;28;20055;-86
2021/09/22 03:27:13;;;;;;;2.55;2.08;;;7.50;99.90;;;;;;4931652;28;20053;-86
2021/09/22 03:29:41;;;;;;;2.58;1.92;;;7.50;99.90;;;;;;4925675;28;20051;-86
2021/09/22 03:32:08;;;;;;;2.83;2.08;;;7.50;99.90;;;;;;4914157;28;20057;-86
2021/09/22 03:34:35;;;;;;;2.70;2.50;;;7.60;99.90;;;;;;4920656;28;20481;-86
2021/09/22 03:37:02;;;;;;;2.55;2.35;;;7.50;99.90;;;;;;4926152;28;20067;-85
2021/09/22 03:39:29;;;;;;;2.25;2.05;;;7.60;99.90;;;;;;4942642;28;20478;-85
2021/09/22 03:41:56;;;;;;;5.35;2.85;;;7.60;99.90;;;;;;4933039;28;20110;-85
2021/09/22 03:44:25;;;;;;;3.63;2.38;;;7.60;99.90;;;;;;4926220;28;20051;-85
2021/09/22 03:46:55;;;;;;;2.28;2.08;;;7.60;99.90;;;;;;4922832;28;20090;-85
2021/09/22 03:49:23;;;;;;;1.83;1.70;;;7.70;99.90;;;;;;4910378;29;20047;-85
2021/09/22 03:51:50;;;;;;;3.97;2.08;;;7.70;99.90;;;;;;4930443;28;20039;-86
2021/09/22 03:54:17;;;;;;;3.33;2.22;;;7.70;99.90;;;;;;4925373;28;20650;-86
2021/09/22 03:56:44;;;;;;;2.28;1.88;;;7.70;99.90;;;;;;4918126;28;20044;-85
2021/09/22 03:59:12;;;;;;;2.63;2.42;;;7.70;99.90;;;;;;4939426;28;20100;-85
2021/09/22 04:01:39;;;;;;;3.13;2.35;;;7.70;99.90;;;;;;4921426;28;20697;-85
2021/09/22 04:04:06;;;;;;;3.00;2.35;;;7.70;99.90;;;;;;4942770;28;20046;-85
2021/09/22 04:06:34;;;;;;;2.17;1.90;;;7.80;99.90;;;;;;4940813;28;20043;-85
2021/09/22 04:09:01;;;;;;;2.60;2.38;;;7.70;99.90;;;;;;4930846;28;20051;-86
2021/09/22 04:11:28;;;;;;;2.60;2.40;;;7.80;99.90;;;;;;4940685;28;20065;-86
2021/09/22 04:13:56;;;;;;;2.53;2.25;;;7.80;99.90;;;;;;4940211;28;20048;-85
2021/09/22 04:16:23;;;;;;;3.15;2.28;;;7.80;99.90;;;;;;4924946;28;20047;-85
2021/09/22 04:18:50;;;;;;;2.50;2.30;;;7.80;99.90;;;;;;4939324;28;20130;-85
2021/09/22 04:21:18;;;;;;;2.65;2.05;;;7.80;99.90;;;;;;4925999;28;20818;-86
2021/09/22 04:23:45;;;;;;;5.78;2.67;;;7.80;99.90;;;;;;4926520;28;20054;-86
2021/09/22 04:26:12;;;;;;;2.95;2.63;;;7.80;99.90;;;;;;4942940;28;20054;-86
2021/09/22 04:28:42;;;;;;;3.63;2.90;;;7.90;99.90;;;;;;4910195;29;20061;-86
2021/09/22 04:31:27;;;;;;;3.33;2.85;;;7.90;99.90;;;;;;4920021;28;20291;-86
2021/09/22 04:34:13;;;;;;;3.20;2.88;;;7.90;99.90;;;;;;4927032;28;20058;-86
2021/09/22 04:36:58;;;;;;;3.58;3.25;;;7.90;99.90;;;;;;4918958;28;20133;-85
2021/09/22 04:39:44;;;;;;;4.68;2.90;;;7.90;99.90;;;;;;4925861;28;20409;-85
2021/09/22 04:42:29;;;;;;;3.15;2.85;;;7.90;99.90;;;;;;4919631;28;20268;-86
2021/09/22 04:45:15;;;;;;;5.53;2.78;;;7.90;99.90;;;;;;4925442;28;20097;-85
2021/09/22 04:48:01;;;;;;;8.95;4.00;;;8.00;99.90;;;;;;4920108;29;20098;-86
2021/09/22 04:50:51;;;;;;;6.57;4.38;;;8.00;99.90;;;;;;4937628;28;20146;-85
2021/09/22 04:53:36;;;;;;;3.67;3.37;;;8.00;99.90;;;;;;4935985;28;20531;-86
2021/09/22 04:56:32;;;;;;;4.50;2.90;;;8.00;99.90;;;;;;4891141;28;20571;-85
2021/09/22 04:59:17;;;;;;;3.72;3.05;;;8.10;99.90;;;;;;4923715;28;20157;-85
2021/09/22 05:02:03;;;;;;;2.90;2.45;;;8.10;99.90;;;;;;4936618;28;20058;-85
2021/09/22 05:04:50;;;;;;;4.10;3.10;;;8.20;99.90;;;;;;4924369;28;20533;-84
2021/09/22 05:07:36;;;;;;;4.47;3.17;;;8.20;99.90;;;;;;4936724;28;20531;-84
2021/09/22 05:10:35;;;;;;;5.22;3.95;;;8.20;99.90;;;;;;4903910;28;20489;-84
2021/09/22 05:13:21;;;;;;;3.65;3.22;;;8.20;99.90;;;;;;4936106;28;20567;-84
2021/09/22 05:16:07;;;;;;;4.25;2.97;;;8.20;99.90;;;;;;4925835;28;20062;-85
2021/09/22 05:18:53;;;;;;;3.88;3.17;;;8.20;99.90;;;;;;4923295;28;20151;-85
2021/09/22 05:21:39;;;;;;;4.43;3.33;;;8.30;99.90;;;;;;4919385;28;20062;-85
2021/09/22 05:24:35;;;;;;;4.95;3.28;;;8.30;99.90;;;;;;4894427;28;20283;-85
2021/09/22 05:27:21;;;;;;;4.50;3.38;;;8.30;99.90;;;;;;4923910;28;20054;-86
2021/09/22 05:30:07;;;;;;;5.30;4.65;;;8.30;99.90;;;;;;4938489;28;20054;-85
2021/09/22 05:32:52;;;;;;;7.03;3.67;;;8.30;99.90;;;;;;4918856;28;20173;-85
2021/09/22 05:35:53;;;;;;;;;;;8.40;99.90;;;;;;4926274;28;20051;-85
2021/09/22 05:38:39;;;;;;;5.50;3.40;;;8.40;99.90;;;;;;4938312;28;19941;-86
2021/09/22 05:41:24;;;;;;;7.55;3.40;;;8.40;99.90;;;;;;4923260;28;20045;-85
2021/09/22 05:44:24;;;;;;;4.43;3.25;;;8.50;99.90;;;;;;4914051;28;20465;-85
2021/09/22 05:47:09;;;;;;;8.48;4.18;;;8.50;99.90;;;;;;4936086;28;21179;-84
2021/09/22 05:49:54;;;;;;;6.30;2.78;;;8.50;99.90;;;;;;4924045;28;20051;-85
2021/09/22 05:52:40;;;;;;;8.57;3.60;;;8.50;99.90;;;;;;4928738;28;20152;-84
2021/09/22 05:55:26;;;;;;;5.18;4.00;;;8.60;99.90;;;;;;4915257;28;20134;-85
2021/09/22 05:58:15;;;;;;;6.88;3.70;;;8.60;99.90;;;;;;4917251;28;20542;-84
2021/09/22 06:01:01;;;;;;;4.47;3.90;;;8.70;99.90;;;;;;4933541;28;20058;-84
2021/09/22 06:03:46;;;;;;;15.15;4.10;;;8.80;99.90;;;;;;4940998;28;20186;-85
2021/09/22 06:06:32;;;;;;;5.03;2.53;;;8.80;99.90;;;;;;4954694;28;20044;-84
2021/09/22 06:09:18;;;;;;;6.47;3.83;;;8.90;99.90;;;;;;4945144;28;20354;-85
2021/09/22 06:12:03;;;;;;;4.45;4.00;;;9.00;99.90;;;;;;4956454;28;20053;-84
2021/09/22 06:14:30;;;;;;;5.57;4.43;;;9.00;99.90;;;;;;4950182;28;20066;-85
2021/09/22 06:16:57;;;;;;;4.68;3.25;;;9.10;99.90;;;;;;4928804;28;20050;-84
2021/09/22 06:19:28;;;;;;;7.53;3.00;;;9.20;99.90;;;;;;4947681;28;20528;-85
2021/09/22 06:21:55;;;;;;;5.43;3.30;;;9.30;99.90;;;;;;4950910;28;20039;-85
2021/09/22 06:24:44;;;;;;;6.47;3.20;;;9.30;99.90;;;;;;4960603;28;20048;-84
2021/09/22 06:27:13;;;;;;;4.30;3.10;;;9.40;99.90;;;;;;4949446;28;20130;-85
2021/09/22 06:29:43;;;;;;;5.28;3.42;;;9.50;99.90;;;;;;4963871;28;20077;-85
2021/09/22 06:32:10;;;;;;;5.68;3.17;;;9.60;99.90;;;;;;4948142;28;20048;-86
2021/09/22 06:35:11;;;;;;;3.53;2.60;;;9.60;99.90;;;;;;4936907;28;20070;-84
2021/09/22 06:37:48;;;;;;;6.50;3.10;;;9.70;99.90;;;;;;4962144;28;20047;-85
2021/09/22 06:40:18;;;;;;;6.32;2.95;;;9.80;99.90;;;;;;4967310;28;20047;-84
2021/09/22 06:42:47;;;;;;;7.35;2.78;;;9.90;99.90;;;;;;4963614;28;20047;-84
2021/09/22 06:45:16;;;;;;;3.78;3.10;;;10.00;99.90;;;;;;4943131;28;20070;-84
2021/09/22 06:47:43;;;;;;;4.05;3.30;;;10.10;99.90;;;;;;4950719;28;20737;-85
2021/09/22 06:50:10;;;;;;;3.30;3.00;;;10.10;99.90;;;;;;4963414;28;20047;-85
2021/09/22 06:52:37;;;;;;;3.90;3.50;;;10.20;99.90;;;;;;4952279;28;20051;-84
2021/09/22 06:55:05;;;;;;;8.38;3.15;;;10.20;99.90;;;;;;4967087;28;20397;-84
2021/09/22 06:57:33;;;;;;;8.00;3.42;;;10.30;99.90;;;;;;4947407;28;20050;-85
2021/09/22 07:00:01;;;;;;;4.72;3.25;;;10.40;99.90;;;;;;4966154;28;20410;-84
2021/09/22 07:02:27;;;;;;;6.28;2.75;;;10.40;99.90;;;;;;4961368;28;20039;-84
2021/09/22 07:04:55;;;;;;;4.32;3.45;;;10.50;99.90;;;;;;4962154;28;20043;-84
2021/09/22 07:07:22;;;;;;;3.58;2.97;;;10.60;99.90;;;;;;4963120;28;20090;-85
2021/09/22 07:09:50;;;;;;;4.05;2.80;;;10.70;99.90;;;;;;4962801;28;20044;-84
2021/09/22 07:12:17;;;;;;;5.57;3.58;;;10.80;99.90;;;;;;4950916;28;20040;-84
2021/09/22 07:14:45;;;;;;;4.10;3.38;;;10.90;99.90;;;;;;4947849;28;20568;-83
2021/09/22 07:17:11;;;;;;;3.63;3.05;;;11.00;99.90;;;;;;4945045;28;20051;-85
2021/09/22 07:19:38;;;;;;;5.20;3.15;;;11.10;99.90;;;;;;4948545;28;20043;-84
2021/09/22 07:22:05;;;;;;;5.63;2.72;;;11.20;99.90;;;;;;4948437;28;20051;-85
2021/09/22 07:24:32;;;;;;;4.72;3.38;;;11.30;99.90;;;;;;4949682;28;20477;-85
2021/09/22 07:26:59;;;;;;;3.60;2.67;;;11.40;99.90;;;;;;4960627;28;20075;-85
2021/09/22 07:29:27;;;;;;;4.30;2.90;;;11.50;99.90;;;;;;4946947;28;20147;-84
2021/09/22 07:31:55;;;;;;;4.60;2.45;;;11.60;99.90;;;;;;4948756;28;20098;-85
2021/09/22 07:34:24;;;;;;;5.13;3.75;;;11.70;99.90;;;;;;4963728;28;20043;-85
2021/09/22 07:37:08;;;;;;;3.70;3.17;;;11.80;99.90;;;;;;4945774;28;20047;-84
2021/09/22 07:39:36;;;;;;;9.27;3.60;;;11.80;99.90;;;;;;4962858;28;20043;-84
2021/09/22 07:42:03;;;;;;;3.85;2.80;;;11.90;99.90;;;;;;4943906;29;20362;-84
2021/09/22 07:44:30;;;;;;;5.53;2.80;;;12.00;99.90;;;;;;4961253;28;20067;-84
2021/09/22 07:46:57;;;;;;;3.15;2.85;;;12.10;99.90;;;;;;4936816;28;20446;-85
2021/09/22 07:49:24;;;;;;;4.45;3.20;;;12.20;99.90;;;;;;4949010;28;20043;-84
2021/09/22 07:51:51;;;;;;;6.03;2.97;;;12.20;99.90;;;;;;4962788;28;20385;-85
2021/09/22 07:54:18;;;;;;;5.85;4.32;;;12.30;99.90;;;;;;4948176;28;20099;-84
2021/09/22 07:56:45;;;;;;;4.40;3.30;;;12.40;99.90;;;;;;4935117;28;20051;-85
2021/09/22 07:59:12;;;;;;;7.22;3.78;;;12.40;99.90;;;;;;4960961;28;20058;-84
2021/09/22 08:01:39;;;;;;;3.88;3.58;;;12.60;99.90;;;;;;4962293;28;20058;-84
2021/09/22 08:04:06;;;;;;;4.72;3.45;;;12.60;99.90;;;;;;4947193;28;20074;-84
2021/09/22 08:06:34;;;;;;;4.90;3.25;;;12.70;99.90;;;;;;4947875;28;20134;-84
2021/09/22 08:09:01;;;;;;;4.90;2.53;;;12.70;99.90;;;;;;4965846;28;20136;-84
2021/09/22 08:11:28;;;;;;;3.92;2.60;;;12.90;99.90;;;;;;4944888;28;20039;-84
2021/09/22 08:13:55;;;;;;;2.85;2.65;;;12.90;99.90;;;;;;4964072;28;20061;-84
2021/09/22 08:16:22;;;;;;;3.33;3.03;;;12.90;99.90;;;;;;4946121;28;20225;-84
2021/09/22 08:18:49;;;;;;;7.10;3.15;;;13.00;99.90;;;;;;4962519;28;20103;-84
2021/09/22 08:21:16;;;;;;;4.22;2.75;;;13.00;99.90;;;;;;4947260;28;20051;-83
2021/09/22 08:23:43;;;;;;;4.65;2.58;;;13.00;99.90;;;;;;4966602;28;20212;-84
2021/09/22 08:26:10;;;;;;;3.70;2.97;;;13.10;99.90;;;;;;4949025;28;20572;-85
2021/09/22 08:28:37;;;;;;;2.25;1.85;;;13.20;99.90;;;;;;4949080;28;20058;-84
2021/09/22 08:31:05;;;;;;;2.67;2.45;;;13.20;99.90;;;;;;4961194;28;20114;-84
2021/09/22 08:33:33;;;;;;;3.92;2.08;;;13.30;99.90;;;;;;4962702;28;20448;-84
2021/09/22 08:36:00;;;;;;;3.33;3.03;;;13.40;99.90;;;;;;4960595;28;20035;-84
2021/09/22 08:38:27;;;;;;;2.83;2.42;;;13.50;99.90;;;;;;4962883;28;20469;-84
2021/09/22 08:40:54;;;;;;;3.50;2.22;;;13.50;99.90;;;;;;4946027;28;20051;-84
2021/09/22 08:43:26;;;;;;;2.40;2.20;;;13.50;99.90;;;;;;4950959;28;20783;-85
2021/09/22 08:45:53;;;;;;;2.72;2.50;;;13.50;99.90;;;;;;4946764;28;20087;-85
2021/09/22 08:48:21;;;;;;;3.90;3.40;;;13.50;99.90;;;;;;4948997;28;20039;-84
2021/09/22 08:50:48;;;;;;;4.85;3.38;;;13.50;99.90;;;;;;4960667;28;20047;-84
2021/09/22 08:53:15;;;;;;;4.30;2.90;;;13.50;99.90;;;;;;4956912;28;20219;-85
2021/09/22 08:55:41;;;;;;;4.32;3.85;;;13.50;99.90;;;;;;4947913;28;20106;-84
2021/09/22 08:58:09;;;;;;;3.05;2.75;;;13.50;99.90;;;;;;4944539;28;20469;-84
2021/09/22 09:00:36;;;;;;;2.97;2.63;;;13.50;99.90;;;;;;4961281;28;20048;-84
2021/09/22 09:03:04;;;;;;;3.80;3.22;;;13.50;99.90;;;;;;4958459;28;20054;-84
2021/09/22 09:05:31;;;;;;;4.72;3.65;;;13.60;99.90;;;;;;4963028;28;20051;-84
2021/09/22 09:08:00;;;;;;;3.55;3.25;;;13.70;99.90;;;;;;4964328;28;20054;-86
2021/09/22 09:10:34;;;;;;;3.77;3.10;;;13.80;99.90;;;;;;4958149;28;20055;-85
2021/09/22 09:13:06;;;;;;;3.70;3.38;;;13.80;99.90;;;;;;4944321;28;20322;-84
2021/09/22 09:15:46;;;;;;;6.80;3.33;;;13.80;99.90;;;;;;4945122;28;20118;-86
2021/09/22 09:18:17;;;;;;;4.53;3.50;;;13.90;99.90;;;;;;4961980;28;20051;-84
2021/09/22 09:20:53;;;;;;;8.63;5.07;;;14.00;99.90;;;;;;4947100;28;20043;-84
2021/09/22 09:23:22;;;;;;;4.38;3.50;;;14.00;99.90;;;;;;4933348;29;20067;-84
2021/09/22 09:26:03;;;;;;;6.50;3.58;;;14.00;99.90;;;;;;4948172;28;20456;-83
2021/09/22 09:28:36;;;;;;;4.80;3.45;;;14.00;99.90;;;;;;4951965;28;20762;-85
2021/09/22 09:31:05;;;;;;;3.88;3.13;;;14.10;99.90;;;;;;4957686;28;20346;-84
2021/09/22 09:33:38;;;;;;;3.92;3.47;;;14.10;99.90;;;;;;4960580;28;20166;-84
2021/09/22 09:36:33;;;;;;;6.03;3.92;;;13.90;99.90;;;;;;4960080;28;20059;-84
2021/09/22 09:39:05;;;;;;;3.38;3.08;;;14.00;99.90;;;;;;4951407;28;20048;-85
2021/09/22 09:41:32;;;;;;;4.18;3.78;;;13.90;99.90;;;;;;4948089;28;20483;-84
2021/09/22 09:44:01;;;;;;;5.05;3.25;;;13.80;99.90;;;;;;4946430;28;20047;-85
2021/09/22 09:46:29;;;;;;;5.00;4.13;;;13.80;99.90;;;;;;4968576;28;20051;-85
2021/09/22 09:48:58;;;;;;;5.15;3.90;;;13.90;99.90;;;;;;4943737;28;20050;-83
2021/09/22 09:51:35;;;;;;;4.45;2.72;;;13.80;99.90;;;;;;4939825;29;20603;-82
2021/09/22 09:54:15;;;;;;;4.20;3.45;;;13.80;99.90;;;;;;4967353;28;20059;-83
2021/09/22 09:56:43;;;;;;;6.43;5.80;;;13.70;99.90;;;;;;4951761;28;20102;-82
2021/09/22 09:59:10;;;;;;;3.55;3.03;;;13.70;99.90;;;;;;4951877;28;20051;-82
2021/09/22 10:01:40;;;;;;;4.35;3.67;;;13.60;99.90;;;;;;4966957;28;20570;-83
2021/09/22 10:04:09;;;;;;;4.20;3.38;;;13.70;99.90;;;;;;4950488;28;20791;-83
2021/09/22 10:06:36;;;;;;;4.35;3.60;;;13.70;99.90;;;;;;4936336;28;20114;-82
2021/09/22 10:09:04;;;;;;;4.90;3.42;;;13.70;99.90;;;;;;4969891;28;20580;-83
2021/09/22 10:11:34;;;;;;;5.22;4.72;;;13.60;99.90;;;;;;4950408;28;20803;-81
2021/09/22 10:14:07;;;;;;;5.78;3.75;;;13.50;99.90;;;;;;4970528;28;20130;-84
2021/09/22 10:16:36;;;;;;;4.28;3.53;;;13.40;99.90;;;;;;4944464;28;20139;-81
2021/09/22 10:19:05;;;;;;;5.47;4.30;;;13.40;99.90;;;;;;4890859;28;20154;-82
2021/09/22 10:21:34;;;;;;;4.28;3.85;;;13.40;99.90;;;;;;4925541;28;20079;-82
2021/09/22 10:24:04;;;;;;;6.95;3.55;;;13.40;99.90;;;;;;4926825;28;20047;-82
2021/09/22 10:26:32;;;;;;;4.85;4.00;;;13.40;99.90;;;;;;4925656;28;20051;-82
2021/09/22 10:29:00;;;;;;;4.50;3.83;;;13.30;99.90;;;;;;4924862;28;20047;-83
2021/09/22 10:31:30;;;;;;;4.53;3.50;;;13.40;99.90;;;;;;4923690;28;20059;-82
2021/09/22 10:33:58;;;;;;;;;;;13.40;99.90;;;;;;4909151;28;20047;-82
2021/09/22 10:36:40;;;;;;;4.55;4.05;;;13.40;99.90;;;;;;4909881;28;20368;-81
2021/09/22 10:39:09;;;;;;;5.65;3.45;;;13.20;99.90;;;;;;4907572;28;20055;-83
2021/09/22 10:41:44;;;;;;;4.70;4.20;;;13.20;99.90;;;;;;4922135;28;20054;-82
2021/09/22 10:44:29;;;;;;;4.25;3.10;;;13.20;99.90;;;;;;4911499;28;20502;-82
2021/09/22 10:47:26;;;;;;;5.72;4.35;;;13.20;99.90;;;;;;4920141;28;20051;-82
2021/09/22 10:49:54;;;;;;;3.83;3.33;;;13.30;99.90;;;;;;4949503;28;20047;-82
2021/09/22 10:52:39;;;;;;;5.35;3.80;;;13.20;99.90;;;;;;4963951;28;20043;-82
2021/09/22 10:55:14;;;;;;;4.30;3.35;;;13.20;99.90;;;;;;4947643;28;20055;-81
2021/09/22 10:57:45;;;;;;;4.20;3.63;;;13.20;99.90;;;;;;4948452;28;20090;-81
2021/09/22 11:00:20;;;;;;;5.40;3.63;;;13.20;99.90;;;;;;4950564;28;20103;-81
2021/09/22 11:02:49;;;;;;;8.48;4.20;;;13.20;99.90;;;;;;4935654;29;20122;-82
2021/09/22 11:05:25;;;;;;;3.83;3.53;;;13.40;99.90;;;;;;4930108;28;20138;-82
2021/09/22 11:07:52;;;;;;;5.03;3.40;;;13.50;99.90;;;;;;4952680;28;20051;-82
2021/09/22 11:10:46;;;;;;;4.10;3.55;;;13.50;99.90;;;;;;4933422;29;20089;-81
2021/09/22 11:13:18;;;;;;;4.75;3.28;;;13.50;99.90;;;;;;4964564;28;20047;-82
2021/09/22 11:15:46;;;;;;;7.85;4.50;;;13.60;99.90;;;;;;4967026;28;20070;-81
2021/09/22 11:18:15;;;;;;;4.40;3.95;;;13.70;99.90;;;;;;4966710;28;20062;-82
2021/09/22 11:20:53;;;;;;;4.22;3.60;;;13.70;99.90;;;;;;4950755;28;20082;-83
2021/09/22 11:23:21;;;;;;;4.55;3.72;;;13.80;99.90;;;;;;4948213;28;20054;-82
2021/09/22 11:25:49;;;;;;;4.38;3.92;;;13.80;99.90;;;;;;4953794;28;20047;-85
2021/09/22 11:28:16;;;;;;;3.78;3.42;;;13.80;99.90;;;;;;4965104;28;20039;-82
2021/09/22 11:30:45;;;;;;;4.32;3.15;;;13.80;99.90;;;;;;4934427;29;20047;-82
2021/09/22 11:33:23;;;;;;;4.45;3.88;;;13.80;99.90;;;;;;4963779;28;20130;-83
2021/09/22 11:35:50;;;;;;;5.70;4.05;;;13.80;99.90;;;;;;4946015;28;20043;-81
2021/09/22 11:38:17;;;;;;;4.85;4.28;;;13.70;99.90;;;;;;4948125;28;20552;-82
2021/09/22 11:40:46;;;;;;;7.47;4.13;;;13.70;99.90;;;;;;4951268;28;20047;-81
2021/09/22 11:43:17;;;;;;;7.47;4.15;;;13.70;99.90;;;;;;4948293;28;20051;-84
2021/09/22 11:45:53;;;;;;;5.43;3.95;;;13.70;99.90;;;;;;4937597;29;20050;-82
2021/09/22 11:48:33;;;;;;;9.90;3.95;;;13.60;99.90;;;;;;4948404;28;20127;-82
2021/09/22 11:51:03;;;;;;;4.90;4.07;;;13.50;99.90;;;;;;4945759;28;20036;-82
2021/09/22 11:53:33;;;;;;;5.10;4.60;;;13.50;99.90;;;;;;4948742;28;20039;-83
2021/09/22 11:56:00;;;;;;;4.07;3.63;;;13.50;99.90;;;;;;4964862;28;20051;-83
2021/09/22 11:58:36;;;;;;;5.00;4.50;;;13.40;99.90;;;;;;4943105;28;20195;-82
2021/09/22 12:01:05;;;;;;;7.80;3.88;;;13.30;99.90;;;;;;4957660;28;20102;-82
2021/09/22 12:03:36;;;;;;;6.60;4.05;;;13.30;99.90;;;;;;4948195;28;20043;-83
2021/09/22 12:06:16;;;;;;;4.72;3.83;;;13.30;99.90;;;;;;4970298;28;20054;-82
2021/09/22 12:08:46;;;;;;;4.35;3.80;;;13.30;99.90;;;;;;4963985;28;20054;-82
2021/09/22 12:11:17;;;;;;;4.22;3.65;;;13.40;99.90;;;;;;4963401;28;20484;-83
2021/09/22 12:13:46;;;;;;;5.15;3.50;;;13.40;99.90;;;;;;4951463;28;20044;-81
2021/09/22 12:16:17;;;;;;;5.22;3.83;;;13.40;99.90;;;;;;4964050;28;20063;-82
2021/09/22 12:18:57;;;;;;;5.30;4.53;;;13.30;99.90;;;;;;4949326;28;20057;-81
2021/09/22 12:21:27;;;;;;;5.85;3.83;;;13.30;99.90;;;;;;4959800;28;20055;-83
2021/09/22 12:23:54;;;;;;;4.45;4.05;;;13.30;99.90;;;;;;4964521;28;20039;-82
2021/09/22 12:26:21;;;;;;;5.40;3.72;;;13.20;99.90;;;;;;4969310;28;20070;-83
2021/09/22 12:29:11;;;;;;;7.18;4.47;;;13.20;99.90;;;;;;4952182;28;20574;-82
2021/09/22 12:31:41;;;;;;;5.43;3.58;;;13.30;99.90;;;;;;4949524;28;20047;-81
2021/09/22 12:34:27;;;;;;;4.43;3.20;;;13.30;99.90;;;;;;4949530;28;20632;-81
2021/09/22 12:36:55;;;;;;;4.63;4.10;;;13.30;99.90;;;;;;4948543;28;20597;-82
2021/09/22 12:39:26;;;;;;;4.20;3.80;;;13.30;99.90;;;;;;4957544;28;20050;-82
2021/09/22 12:42:04;;;;;;;5.28;3.85;;;13.20;99.90;;;;;;4955740;28;20047;-82
2021/09/22 12:44:51;;;;;;;5.25;3.67;;;13.20;99.90;;;;;;4963759;28;20049;-82
2021/09/22 12:47:18;;;;;;;3.63;3.30;;;13.20;99.90;;;;;;4938821;28;20055;-82
2021/09/22 12:50:07;;;;;;;3.67;3.38;;;13.20;99.90;;;;;;4965944;28;20051;-82
2021/09/22 12:52:34;;;;;;;6.30;4.47;;;13.20;99.90;;;;;;4964425;28;20117;-82
2021/09/22 12:55:17;;;;;;;4.95;3.90;;;13.10;99.90;;;;;;4968985;28;20054;-82
2021/09/22 12:57:50;;;;;;;4.40;4.00;;;13.10;99.90;;;;;;4949347;28;20117;-82
2021/09/22 13:00:44;;;;;;;3.97;3.50;;;13.10;99.90;;;;;;4967374;28;20051;-84
2021/09/22 13:03:28;;;;;;;3.60;3.28;;;13.00;99.90;;;;;;4961578;28;20050;-82
2021/09/22 13:06:05;;;;;;;6.00;4.25;;;13.00;99.90;;;;;;4951041;28;20591;-83
2021/09/22 13:08:57;;;;;;;3.70;3.40;;;13.10;99.90;;;;;;4963629;28;20155;-83
2021/09/22 13:11:34;;;;;;;4.38;3.78;;;13.10;99.90;;;;;;4963345;28;20166;-82
2021/09/22 13:14:06;;;;;;;4.75;3.88;;;13.10;99.90;;;;;;4964071;28;20055;-83
2021/09/22 13:16:39;;;;;;;4.38;3.90;;;13.10;99.90;;;;;;4945948;28;20059;-83
2021/09/22 13:19:09;;;;;;;4.00;3.30;;;13.10;99.90;;;;;;4931982;28;20047;-82
2021/09/22 13:21:38;;;;;;;4.68;3.72;;;13.10;99.90;;;;;;4951786;28;20066;-82